sensor_id;sensor_type;location;lat;lon;timestamp;pressure;altitude;pressure_sealevel;temperature;humidity
21821;BME280;11073;48.586;12.066;2023-03-14T00:01:13;94908.00;;;12.66;61.85
21821;BME280;11073;48.586;12.066;2023-03-14T00:04:03;94917.84;;;12.62;62.32
21821;BME280;11073;48.586;12.066;2023-03-14T00:06:54;94922.53;;;12.52;62.49
21821;BME280;11073;48.586;12.066;2023-03-14T00:09:43;94912.03;;;12.45;62.45
21821;BME280;11073;48.586;12.066;2023-03-14T00:12:32;94918.03;;;12.42;62.80
21821;BME280;11073;48.586;12.066;2023-03-14T00:15:21;94925.97;;;12.38;63.04
21821;BME280;11073;48.586;12.066;2023-03-14T00:18:10;94935.13;;;12.42;63.14
21821;BME280;11073;48.586;12.066;2023-03-14T00:20:59;94932.47;;;12.37;63.51
21821;BME280;11073;48.586;12.066;2023-03-14T00:23:50;94950.13;;;12.35;63.44
21821;BME280;11073;48.586;12.066;2023-03-14T00:26:39;94944.19;;;12.33;63.66
21821;BME280;11073;48.586;12.066;2023-03-14T00:29:28;94939.31;;;12.30;63.84
21821;BME280;11073;48.586;12.066;2023-03-14T00:32:18;94913.47;;;12.08;64.03
21821;BME280;11073;48.586;12.066;2023-03-14T00:35:08;94942.91;;;12.25;63.99
21821;BME280;11073;48.586;12.066;2023-03-14T00:37:57;94930.13;;;12.26;64.17
21821;BME280;11073;48.586;12.066;2023-03-14T00:40:47;94926.34;;;12.27;64.15
21821;BME280;11073;48.586;12.066;2023-03-14T00:43:37;94935.78;;;12.29;64.32
21821;BME280;11073;48.586;12.066;2023-03-14T00:46:26;94945.28;;;12.32;64.51
21821;BME280;11073;48.586;12.066;2023-03-14T00:49:16;94949.63;;;12.33;64.52
21821;BME280;11073;48.586;12.066;2023-03-14T00:52:05;94959.66;;;12.32;64.62
21821;BME280;11073;48.586;12.066;2023-03-14T00:54:54;94951.03;;;12.25;64.78
21821;BME280;11073;48.586;12.066;2023-03-14T00:57:45;94929.41;;;12.15;65.13
21821;BME280;11073;48.586;12.066;2023-03-14T01:00:35;94935.09;;;12.19;64.94
21821;BME280;11073;48.586;12.066;2023-03-14T01:03:25;94918.56;;;12.15;65.29
21821;BME280;11073;48.586;12.066;2023-03-14T01:06:15;94905.81;;;12.15;65.27
21821;BME280;11073;48.586;12.066;2023-03-14T01:09:04;94886.41;;;12.03;65.51
21821;BME280;11073;48.586;12.066;2023-03-14T01:11:53;94886.63;;;12.07;65.63
21821;BME280;11073;48.586;12.066;2023-03-14T01:14:44;94898.56;;;12.06;65.96
21821;BME280;11073;48.586;12.066;2023-03-14T01:17:34;94912.72;;;12.03;65.94
21821;BME280;11073;48.586;12.066;2023-03-14T01:20:23;94920.59;;;11.99;66.14
21821;BME280;11073;48.586;12.066;2023-03-14T01:23:13;94921.19;;;11.96;66.28
21821;BME280;11073;48.586;12.066;2023-03-14T01:26:02;94916.56;;;11.97;66.92
21821;BME280;11073;48.586;12.066;2023-03-14T01:28:53;94921.19;;;11.96;66.69
21821;BME280;11073;48.586;12.066;2023-03-14T01:31:44;94917.91;;;11.94;67.05
21821;BME280;11073;48.586;12.066;2023-03-14T01:34:33;94933.34;;;11.99;66.98
21821;BME280;11073;48.586;12.066;2023-03-14T01:37:22;94927.16;;;11.93;67.19
21821;BME280;11073;48.586;12.066;2023-03-14T01:40:12;94939.38;;;11.91;67.31
21821;BME280;11073;48.586;12.066;2023-03-14T01:43:12;94942.41;;;11.84;67.68
21821;BME280;11073;48.586;12.066;2023-03-14T01:46:22;94942.94;;;11.86;67.87
21821;BME280;11073;48.586;12.066;2023-03-14T01:49:17;94933.78;;;11.72;68.07
21821;BME280;11073;48.586;12.066;2023-03-14T01:52:20;94948.13;;;11.77;68.30
21821;BME280;11073;48.586;12.066;2023-03-14T01:55:14;94953.56;;;11.72;68.59
21821;BME280;11073;48.586;12.066;2023-03-14T01:58:05;94946.84;;;11.65;68.86
21821;BME280;11073;48.586;12.066;2023-03-14T02:00:55;94952.88;;;11.51;69.12
21821;BME280;11073;48.586;12.066;2023-03-14T02:03:50;94947.28;;;11.38;69.48
21821;BME280;11073;48.586;12.066;2023-03-14T02:06:50;94955.94;;;11.40;69.90
21821;BME280;11073;48.586;12.066;2023-03-14T02:09:44;94945.13;;;11.29;70.20
21821;BME280;11073;48.586;12.066;2023-03-14T02:12:40;94961.91;;;11.37;70.67
21821;BME280;11073;48.586;12.066;2023-03-14T02:15:49;94957.38;;;11.22;70.66
21821;BME280;11073;48.586;12.066;2023-03-14T02:18:57;94959.56;;;11.20;71.14
21821;BME280;11073;48.586;12.066;2023-03-14T02:22:06;94944.41;;;11.14;71.22
21821;BME280;11073;48.586;12.066;2023-03-14T02:25:11;94952.56;;;11.09;71.18
21821;BME280;11073;48.586;12.066;2023-03-14T02:28:06;94948.28;;;11.02;71.42
21821;BME280;11073;48.586;12.066;2023-03-14T02:30:56;94938.25;;;10.93;71.46
21821;BME280;11073;48.586;12.066;2023-03-14T02:33:45;94944.50;;;10.93;71.70
21821;BME280;11073;48.586;12.066;2023-03-14T02:36:35;94949.94;;;10.88;72.09
21821;BME280;11073;48.586;12.066;2023-03-14T02:39:29;94934.22;;;10.85;72.29
21821;BME280;11073;48.586;12.066;2023-03-14T02:42:20;94928.88;;;10.75;72.19
21821;BME280;11073;48.586;12.066;2023-03-14T02:45:42;94885.28;;;10.71;72.60
21821;BME280;11073;48.586;12.066;2023-03-14T02:48:36;94881.53;;;10.67;72.67
21821;BME280;11073;48.586;12.066;2023-03-14T02:51:31;94875.34;;;10.57;73.02
21821;BME280;11073;48.586;12.066;2023-03-14T02:54:22;94856.44;;;10.46;73.51
21821;BME280;11073;48.586;12.066;2023-03-14T02:57:12;94857.03;;;10.33;74.13
21821;BME280;11073;48.586;12.066;2023-03-14T03:00:01;94813.78;;;10.18;74.34
21821;BME280;11073;48.586;12.066;2023-03-14T03:02:57;94795.66;;;10.13;75.04
21821;BME280;11073;48.586;12.066;2023-03-14T03:05:48;94769.47;;;10.04;75.68
21821;BME280;11073;48.586;12.066;2023-03-14T03:08:38;94787.88;;;10.07;76.05
21821;BME280;11073;48.586;12.066;2023-03-14T03:11:27;94860.84;;;10.07;75.67
21821;BME280;11073;48.586;12.066;2023-03-14T03:14:17;94844.34;;;10.08;75.87
21821;BME280;11073;48.586;12.066;2023-03-14T03:17:06;94830.81;;;10.13;76.09
21821;BME280;11073;48.586;12.066;2023-03-14T03:19:57;94828.91;;;10.19;76.26
21821;BME280;11073;48.586;12.066;2023-03-14T03:22:46;94828.09;;;10.18;76.14
21821;BME280;11073;48.586;12.066;2023-03-14T03:25:35;94830.56;;;10.10;76.26
21821;BME280;11073;48.586;12.066;2023-03-14T03:28:25;94824.34;;;10.09;76.46
21821;BME280;11073;48.586;12.066;2023-03-14T03:31:15;94816.75;;;10.11;76.69
21821;BME280;11073;48.586;12.066;2023-03-14T03:34:05;94803.53;;;10.10;76.45
21821;BME280;11073;48.586;12.066;2023-03-14T03:36:57;94813.53;;;9.99;76.70
21821;BME280;11073;48.586;12.066;2023-03-14T03:39:49;94830.59;;;10.00;76.87
21821;BME280;11073;48.586;12.066;2023-03-14T03:42:38;94828.94;;;9.99;77.16
21821;BME280;11073;48.586;12.066;2023-03-14T03:45:30;94828.94;;;9.99;77.00
21821;BME280;11073;48.586;12.066;2023-03-14T03:48:19;94835.47;;;9.92;76.98
21821;BME280;11073;48.586;12.066;2023-03-14T03:51:12;94811.66;;;9.89;77.71
21821;BME280;11073;48.586;12.066;2023-03-14T03:54:04;94810.81;;;9.99;77.40
21821;BME280;11073;48.586;12.066;2023-03-14T03:56:53;94810.03;;;10.04;77.41
21821;BME280;11073;48.586;12.066;2023-03-14T03:59:43;94810.81;;;9.99;77.33
21821;BME280;11073;48.586;12.066;2023-03-14T04:02:32;94706.16;;;9.35;77.35
21821;BME280;11073;48.586;12.066;2023-03-14T04:05:21;94796.50;;;10.04;77.60
21821;BME280;11073;48.586;12.066;2023-03-14T04:08:17;94797.59;;;10.08;77.52
21821;BME280;11073;48.586;12.066;2023-03-14T04:11:08;94787.88;;;10.07;77.21
21821;BME280;11073;48.586;12.066;2023-03-14T04:14:27;94778.66;;;10.08;77.23
21821;BME280;11073;48.586;12.066;2023-03-14T04:17:24;94779.75;;;10.02;77.32
21821;BME280;11073;48.586;12.066;2023-03-14T04:20:14;94781.94;;;10.00;77.11
21821;BME280;11073;48.586;12.066;2023-03-14T04:23:03;94779.75;;;9.97;77.09
21821;BME280;11073;48.586;12.066;2023-03-14T04:25:53;94765.72;;;10.00;77.27
21821;BME280;11073;48.586;12.066;2023-03-14T04:28:44;94770.56;;;10.08;77.02
21821;BME280;11073;48.586;12.066;2023-03-14T04:31:33;94768.09;;;10.06;76.71
21821;BME280;11073;48.586;12.066;2023-03-14T04:34:23;94772.97;;;10.04;76.69
21821;BME280;11073;48.586;12.066;2023-03-14T04:37:15;94770.31;;;9.94;76.59
21821;BME280;11073;48.586;12.066;2023-03-14T04:40:06;94777.88;;;9.97;76.47
21821;BME280;11073;48.586;12.066;2023-03-14T04:42:56;94776.53;;;9.89;76.69
21821;BME280;11073;48.586;12.066;2023-03-14T04:45:46;94783.84;;;9.94;76.24
21821;BME280;11073;48.586;12.066;2023-03-14T04:48:35;94782.19;;;9.98;76.58
21821;BME280;11073;48.586;12.066;2023-03-14T04:51:26;94773.25;;;9.98;76.28
21821;BME280;11073;48.586;12.066;2023-03-14T04:54:16;94772.47;;;9.97;76.04
21821;BME280;11073;48.586;12.066;2023-03-14T04:57:09;94769.22;;;9.95;75.88
21821;BME280;11073;48.586;12.066;2023-03-14T04:59:59;94774.06;;;9.98;75.85
21821;BME280;11073;48.586;12.066;2023-03-14T05:03:06;94760.31;;;9.89;75.83
21821;BME280;11073;48.586;12.066;2023-03-14T05:06:27;94752.22;;;9.89;75.44
21821;BME280;11073;48.586;12.066;2023-03-14T05:09:26;94744.91;;;9.90;75.40
21821;BME280;11073;48.586;12.066;2023-03-14T05:12:44;94727.63;;;9.86;75.16
21821;BME280;11073;48.586;12.066;2023-03-14T05:16:06;94745.19;;;9.88;75.04
21821;BME280;11073;48.586;12.066;2023-03-14T05:19:29;94752.22;;;9.89;74.59
21821;BME280;11073;48.586;12.066;2023-03-14T05:22:46;94741.97;;;9.86;74.26
21821;BME280;11073;48.586;12.066;2023-03-14T05:25:54;94754.91;;;9.89;73.85
21821;BME280;11073;48.586;12.066;2023-03-14T05:28:57;94731.16;;;9.76;73.64
21821;BME280;11073;48.586;12.066;2023-03-14T05:32:08;94745.75;;;9.80;73.46
21821;BME280;11073;48.586;12.066;2023-03-14T05:35:25;94741.69;;;9.83;73.54
21821;BME280;11073;48.586;12.066;2023-03-14T05:38:27;94732.25;;;9.85;73.00
21821;BME280;11073;48.586;12.066;2023-03-14T05:41:39;94734.66;;;9.87;72.84
21821;BME280;11073;48.586;12.066;2023-03-14T05:45:06;94735.75;;;9.81;72.50
21821;BME280;11073;48.586;12.066;2023-03-14T05:48:22;94734.94;;;9.70;72.39
21821;BME280;11073;48.586;12.066;2023-03-14T05:51:30;94726.59;;;9.61;72.42
21821;BME280;11073;48.586;12.066;2023-03-14T05:54:34;94719.31;;;9.72;72.57
21821;BME280;11073;48.586;12.066;2023-03-14T05:57:37;94727.94;;;9.69;72.43
21821;BME280;11073;48.586;12.066;2023-03-14T06:00:32;94734.72;;;9.66;72.04
21821;BME280;11073;48.586;12.066;2023-03-14T06:03:37;94748.50;;;9.65;72.31
21821;BME280;11073;48.586;12.066;2023-03-14T06:06:26;94746.31;;;9.67;72.29
21821;BME280;11073;48.586;12.066;2023-03-14T06:09:16;94743.34;;;9.74;71.95
21821;BME280;11073;48.586;12.066;2023-03-14T06:12:08;94737.38;;;9.77;71.66
21821;BME280;11073;48.586;12.066;2023-03-14T06:15:02;94733.88;;;9.76;71.79
21821;BME280;11073;48.586;12.066;2023-03-14T06:17:53;94734.94;;;9.75;71.50
21821;BME280;11073;48.586;12.066;2023-03-14T06:20:42;94732.78;;;9.77;71.28
21821;BME280;11073;48.586;12.066;2023-03-14T06:23:37;94729.53;;;9.75;71.32
21821;BME280;11073;48.586;12.066;2023-03-14T06:26:27;94737.38;;;9.82;71.39
21821;BME280;11073;48.586;12.066;2023-03-14T06:29:17;94729.81;;;9.74;71.08
21821;BME280;11073;48.586;12.066;2023-03-14T06:32:06;94733.88;;;9.76;70.92
21821;BME280;11073;48.586;12.066;2023-03-14T06:34:56;94732.78;;;9.77;70.58
21821;BME280;11073;48.586;12.066;2023-03-14T06:37:49;94735.47;;;9.77;70.82
21821;BME280;11073;48.586;12.066;2023-03-14T06:40:38;94743.34;;;9.79;70.36
21821;BME280;11073;48.586;12.066;2023-03-14T06:43:34;94738.75;;;9.79;70.37
21821;BME280;11073;48.586;12.066;2023-03-14T06:46:24;94743.06;;;9.80;70.40
21821;BME280;11073;48.586;12.066;2023-03-14T06:49:13;94730.63;;;9.74;70.34
21821;BME280;11073;48.586;12.066;2023-03-14T06:52:02;94740.63;;;9.79;70.17
21821;BME280;11073;48.586;12.066;2023-03-14T06:54:53;94737.38;;;9.82;70.02
21821;BME280;11073;48.586;12.066;2023-03-14T06:57:43;94734.66;;;9.82;69.73
21821;BME280;11073;48.586;12.066;2023-03-14T07:00:34;94718.44;;;9.87;69.87
21821;BME280;11073;48.586;12.066;2023-03-14T07:03:23;94723.56;;;9.93;69.76
21821;BME280;11073;48.586;12.066;2023-03-14T07:06:15;94728.94;;;9.99;69.60
21821;BME280;11073;48.586;12.066;2023-03-14T07:09:04;94718.66;;;10.01;69.18
21821;BME280;11073;48.586;12.066;2023-03-14T07:11:56;94720.81;;;10.04;69.12
21821;BME280;11073;48.586;12.066;2023-03-14T07:14:45;94729.44;;;10.11;69.26
21821;BME280;11073;48.586;12.066;2023-03-14T07:17:36;94743.22;;;10.14;68.82
21821;BME280;11073;48.586;12.066;2023-03-14T07:20:25;94733.16;;;10.20;68.56
21821;BME280;11073;48.586;12.066;2023-03-14T07:23:13;94725.63;;;10.12;68.52
21821;BME280;11073;48.586;12.066;2023-03-14T07:26:07;94742.38;;;10.14;68.36
21821;BME280;11073;48.586;12.066;2023-03-14T07:28:59;94761.59;;;10.23;68.08
21821;BME280;11073;48.586;12.066;2023-03-14T07:31:51;94754.56;;;10.16;68.08
21821;BME280;11073;48.586;12.066;2023-03-14T07:34:42;94759.97;;;10.21;68.33
21821;BME280;11073;48.586;12.066;2023-03-14T07:37:31;94765.09;;;10.13;68.08
21821;BME280;11073;48.586;12.066;2023-03-14T07:40:21;94771.59;;;10.17;67.77
21821;BME280;11073;48.586;12.066;2023-03-14T07:43:10;94782.69;;;10.10;67.98
21821;BME280;11073;48.586;12.066;2023-03-14T07:46:07;94781.88;;;10.15;67.83
21821;BME280;11073;48.586;12.066;2023-03-14T07:48:56;94744.31;;;10.08;67.87
21821;BME280;11073;48.586;12.066;2023-03-14T07:51:48;94768.34;;;10.25;67.29
21821;BME280;11073;48.586;12.066;2023-03-14T07:54:37;94747.78;;;10.29;67.56
21821;BME280;11073;48.586;12.066;2023-03-14T07:57:26;94750.44;;;10.39;67.36
21821;BME280;11073;48.586;12.066;2023-03-14T08:00:15;94763.38;;;10.47;67.02
21821;BME280;11073;48.586;12.066;2023-03-14T08:03:06;94746.63;;;10.45;67.16
21821;BME280;11073;48.586;12.066;2023-03-14T08:05:54;94766.31;;;10.56;67.09
21821;BME280;11073;48.586;12.066;2023-03-14T08:08:45;94756.56;;;10.55;66.90
21821;BME280;11073;48.586;12.066;2023-03-14T08:11:34;94751.66;;;10.62;66.79
21821;BME280;11073;48.586;12.066;2023-03-14T08:14:22;94750.84;;;10.67;66.48
21821;BME280;11073;48.586;12.066;2023-03-14T08:17:11;94754.31;;;10.72;66.55
21821;BME280;11073;48.586;12.066;2023-03-14T08:20:00;94754.03;;;10.74;66.52
21821;BME280;11073;48.586;12.066;2023-03-14T08:22:49;94764.78;;;10.89;66.71
21821;BME280;11073;48.586;12.066;2023-03-14T08:25:39;94758.75;;;10.97;66.02
21821;BME280;11073;48.586;12.066;2023-03-14T08:28:28;94756.63;;;10.94;66.14
21821;BME280;11073;48.586;12.066;2023-03-14T08:31:18;94760.13;;;10.95;65.95
21821;BME280;11073;48.586;12.066;2023-03-14T08:34:07;94749.03;;;10.91;65.52
21821;BME280;11073;48.586;12.066;2023-03-14T08:36:55;94753.84;;;10.99;65.38
21821;BME280;11073;48.586;12.066;2023-03-14T08:39:44;94754.09;;;11.08;65.25
21821;BME280;11073;48.586;12.066;2023-03-14T08:42:35;94746.16;;;11.17;65.16
21821;BME280;11073;48.586;12.066;2023-03-14T08:45:24;94752.06;;;11.24;64.76
21821;BME280;11073;48.586;12.066;2023-03-14T08:48:12;94745.06;;;11.18;64.94
21821;BME280;11073;48.586;12.066;2023-03-14T08:51:05;94748.22;;;11.30;64.72
21821;BME280;11073;48.586;12.066;2023-03-14T08:53:54;94762.00;;;11.33;64.28
21821;BME280;11073;48.586;12.066;2023-03-14T08:56:42;94753.22;;;11.13;63.96
21821;BME280;11073;48.586;12.066;2023-03-14T08:59:32;94764.25;;;11.21;63.99
21821;BME280;11073;48.586;12.066;2023-03-14T09:02:21;94756.38;;;11.25;63.99
21821;BME280;11073;48.586;12.066;2023-03-14T09:05:10;94758.00;;;11.26;63.64
21821;BME280;11073;48.586;12.066;2023-03-14T09:07:59;94769.28;;;11.38;63.91
21821;BME280;11073;48.586;12.066;2023-03-14T09:10:49;94772.47;;;11.45;63.70
21821;BME280;11073;48.586;12.066;2023-03-14T09:13:37;94762.50;;;11.41;63.24
21821;BME280;11073;48.586;12.066;2023-03-14T09:16:28;94770.31;;;11.42;63.05
21821;BME280;11073;48.586;12.066;2023-03-14T09:19:16;94759.16;;;11.49;63.02
21821;BME280;11073;48.586;12.066;2023-03-14T09:22:05;94761.50;;;11.60;62.92
21821;BME280;11073;48.586;12.066;2023-03-14T09:24:54;94765.88;;;11.56;62.39
21821;BME280;11073;48.586;12.066;2023-03-14T09:27:43;94776.06;;;11.70;62.47
21821;BME280;11073;48.586;12.066;2023-03-14T09:30:33;94761.53;;;11.55;61.98
21821;BME280;11073;48.586;12.066;2023-03-14T09:33:23;94758.16;;;11.69;62.07
21821;BME280;11073;48.586;12.066;2023-03-14T09:36:12;94766.06;;;11.65;61.78
21821;BME280;11073;48.586;12.066;2023-03-14T09:39:01;94767.69;;;11.66;61.44
21821;BME280;11073;48.586;12.066;2023-03-14T09:41:51;94762.03;;;11.63;61.47
21821;BME280;11073;48.586;12.066;2023-03-14T09:44:47;94763.78;;;11.77;61.33
21821;BME280;11073;48.586;12.066;2023-03-14T09:47:40;94747.72;;;11.86;60.87
21821;BME280;11073;48.586;12.066;2023-03-14T09:50:49;94749.72;;;12.04;60.60
21821;BME280;11073;48.586;12.066;2023-03-14T09:53:41;94755.69;;;12.01;60.37
21821;BME280;11073;48.586;12.066;2023-03-14T09:56:32;94754.25;;;12.09;60.24
21821;BME280;11073;48.586;12.066;2023-03-14T09:59:22;94741.72;;;12.13;59.88
21821;BME280;11073;48.586;12.066;2023-03-14T10:02:17;94735.25;;;12.09;59.49
21821;BME280;11073;48.586;12.066;2023-03-14T10:05:14;94758.16;;;12.46;59.32
21821;BME280;11073;48.586;12.066;2023-03-14T10:08:05;94741.69;;;12.61;59.25
21821;BME280;11073;48.586;12.066;2023-03-14T10:10:54;94755.91;;;13.09;59.06
21821;BME280;11073;48.586;12.066;2023-03-14T10:14:01;94749.19;;;13.26;58.17
21821;BME280;11073;48.586;12.066;2023-03-14T10:16:51;94758.16;;;13.26;57.84
21821;BME280;11073;48.586;12.066;2023-03-14T10:19:51;94743.97;;;13.29;57.48
21821;BME280;11073;48.586;12.066;2023-03-14T10:22:40;94745.50;;;13.35;57.30
21821;BME280;11073;48.586;12.066;2023-03-14T10:25:32;94741.34;;;13.05;56.73
21821;BME280;11073;48.586;12.066;2023-03-14T10:28:24;94727.81;;;13.00;56.37
21821;BME280;11073;48.586;12.066;2023-03-14T10:31:14;94733.47;;;13.04;56.54
21821;BME280;11073;48.586;12.066;2023-03-14T10:34:04;94737.81;;;13.05;55.97
21821;BME280;11073;48.586;12.066;2023-03-14T10:36:56;94730.03;;;12.98;56.11
21821;BME280;11073;48.586;12.066;2023-03-14T10:39:47;94731.03;;;13.02;55.82
21821;BME280;11073;48.586;12.066;2023-03-14T10:42:42;94735.78;;;13.10;55.87
21821;BME280;11073;48.586;12.066;2023-03-14T10:45:36;94733.38;;;13.09;55.52
21821;BME280;11073;48.586;12.066;2023-03-14T10:48:31;94732.31;;;12.91;55.11
21821;BME280;11073;48.586;12.066;2023-03-14T10:51:26;94725.03;;;12.86;55.22
21821;BME280;11073;48.586;12.066;2023-03-14T10:54:21;94730.03;;;12.79;55.22
21821;BME280;11073;48.586;12.066;2023-03-14T10:57:11;94721.28;;;13.01;55.11
21821;BME280;11073;48.586;12.066;2023-03-14T11:00:01;94717.50;;;13.16;55.34
21821;BME280;11073;48.586;12.066;2023-03-14T11:03:03;94720.53;;;13.14;54.73
21821;BME280;11073;48.586;12.066;2023-03-14T11:05:41;94703.72;;;13.12;54.68
21821;BME280;11073;48.586;12.066;2023-03-14T11:08:20;94716.50;;;13.12;54.49
21821;BME280;11073;48.586;12.066;2023-03-14T11:10:54;94714.38;;;13.09;54.22
21821;BME280;11073;48.586;12.066;2023-03-14T11:13:25;94709.97;;;13.13;54.42
21821;BME280;11073;48.586;12.066;2023-03-14T11:16:02;94713.13;;;13.01;54.04
21821;BME280;11073;48.586;12.066;2023-03-14T11:19:00;94700.97;;;12.98;54.07
21821;BME280;11073;48.586;12.066;2023-03-14T11:21:35;94700.75;;;12.76;54.11
21821;BME280;11073;48.586;12.066;2023-03-14T11:24:18;94700.88;;;12.66;54.21
21821;BME280;11073;48.586;12.066;2023-03-14T11:26:54;94697.72;;;12.59;54.18
21821;BME280;11073;48.586;12.066;2023-03-14T11:29:32;94692.75;;;12.47;54.19
21821;BME280;11073;48.586;12.066;2023-03-14T11:32:13;94694.94;;;12.64;54.59
21821;BME280;11073;48.586;12.066;2023-03-14T11:34:49;94680.88;;;12.62;54.66
21821;BME280;11073;48.586;12.066;2023-03-14T11:37:23;94701.13;;;12.69;54.36
21821;BME280;11073;48.586;12.066;2023-03-14T11:39:59;94704.94;;;12.68;54.25
21821;BME280;11073;48.586;12.066;2023-03-14T11:42:31;94701.84;;;12.56;54.29
21821;BME280;11073;48.586;12.066;2023-03-14T11:45:02;94694.56;;;12.52;54.47
21821;BME280;11073;48.586;12.066;2023-03-14T11:47:34;94696.34;;;12.61;54.54
21821;BME280;11073;48.586;12.066;2023-03-14T11:50:13;94687.59;;;12.64;54.36
21821;BME280;11073;48.586;12.066;2023-03-14T11:52:47;94685.84;;;12.74;54.40
21821;BME280;11073;48.586;12.066;2023-03-14T11:55:20;94670.88;;;12.76;54.40
21821;BME280;11073;48.586;12.066;2023-03-14T11:57:55;94678.81;;;12.73;54.24
21821;BME280;11073;48.586;12.066;2023-03-14T12:00:26;94676.09;;;12.73;54.67
21821;BME280;11073;48.586;12.066;2023-03-14T12:02:59;94665.16;;;12.78;54.54
21821;BME280;11073;48.586;12.066;2023-03-14T12:05:43;94656.94;;;12.83;54.50
21821;BME280;11073;48.586;12.066;2023-03-14T12:08:26;94657.38;;;12.90;54.40
21821;BME280;11073;48.586;12.066;2023-03-14T12:11:00;94667.56;;;12.98;54.58
21821;BME280;11073;48.586;12.066;2023-03-14T12:13:32;94675.03;;;13.06;54.56
21821;BME280;11073;48.586;12.066;2023-03-14T12:16:05;94665.28;;;13.05;54.48
21821;BME280;11073;48.586;12.066;2023-03-14T12:18:38;94660.66;;;13.06;54.36
21821;BME280;11073;48.586;12.066;2023-03-14T12:21:10;94666.88;;;13.06;54.52
21821;BME280;11073;48.586;12.066;2023-03-14T12:23:42;94663.25;;;12.97;54.14
21821;BME280;11073;48.586;12.066;2023-03-14T12:26:16;94667.03;;;12.96;53.97
21821;BME280;11073;48.586;12.066;2023-03-14T12:28:50;94659.03;;;13.05;54.11
21821;BME280;11073;48.586;12.066;2023-03-14T12:31:40;94662.69;;;13.14;53.84
21821;BME280;11073;48.586;12.066;2023-03-14T12:34:28;94645.66;;;13.08;53.35
21821;BME280;11073;48.586;12.066;2023-03-14T12:37:19;94649.47;;;13.26;53.09
21821;BME280;11073;48.586;12.066;2023-03-14T12:39:59;94644.22;;;13.30;53.04
21821;BME280;11073;48.586;12.066;2023-03-14T12:42:40;94643.03;;;13.36;53.33
21821;BME280;11073;48.586;12.066;2023-03-14T12:45:23;94634.59;;;13.37;53.13
21821;BME280;11073;48.586;12.066;2023-03-14T12:48:08;94627.34;;;13.33;53.12
21821;BME280;11073;48.586;12.066;2023-03-14T12:50:42;94620.38;;;13.27;52.70
21821;BME280;11073;48.586;12.066;2023-03-14T12:53:49;94638.59;;;13.40;52.88
21821;BME280;11073;48.586;12.066;2023-03-14T12:56:25;94636.00;;;13.35;53.01
21821;BME280;11073;48.586;12.066;2023-03-14T12:59:06;94634.41;;;13.34;53.16
21821;BME280;11073;48.586;12.066;2023-03-14T13:01:48;94621.69;;;13.29;52.99
21821;BME280;11073;48.586;12.066;2023-03-14T13:04:28;94626.63;;;13.27;52.66
21821;BME280;11073;48.586;12.066;2023-03-14T13:07:13;94618.72;;;13.12;52.60
21821;BME280;11073;48.586;12.066;2023-03-14T13:10:00;94643.72;;;13.28;52.51
21821;BME280;11073;48.586;12.066;2023-03-14T13:12:37;94647.63;;;13.21;52.41
21821;BME280;11073;48.586;12.066;2023-03-14T13:15:22;94649.28;;;13.17;52.45
21821;BME280;11073;48.586;12.066;2023-03-14T13:17:53;94656.94;;;13.15;52.25
21821;BME280;11073;48.586;12.066;2023-03-14T13:20:28;94642.06;;;13.13;52.35
21821;BME280;11073;48.586;12.066;2023-03-14T13:22:58;94643.72;;;13.28;52.41
21821;BME280;11073;48.586;12.066;2023-03-14T13:25:30;94649.66;;;13.30;52.02
21821;BME280;11073;48.586;12.066;2023-03-14T13:28:01;94653.50;;;13.29;52.28
21821;BME280;11073;48.586;12.066;2023-03-14T13:30:38;94653.38;;;13.20;51.92
21821;BME280;11073;48.586;12.066;2023-03-14T13:33:12;94640.63;;;13.34;52.28
21821;BME280;11073;48.586;12.066;2023-03-14T13:35:43;94652.13;;;13.45;52.22
21821;BME280;11073;48.586;12.066;2023-03-14T13:38:17;94639.03;;;13.47;52.00
21821;BME280;11073;48.586;12.066;2023-03-14T13:40:47;94666.31;;;13.42;51.93
21821;BME280;11073;48.586;12.066;2023-03-14T13:43:19;94669.19;;;13.32;51.95
21821;BME280;11073;48.586;12.066;2023-03-14T13:45:53;94655.41;;;13.28;51.90
21821;BME280;11073;48.586;12.066;2023-03-14T13:48:26;94660.97;;;13.18;51.70
21821;BME280;11073;48.586;12.066;2023-03-14T13:50:59;94655.00;;;13.02;51.91
21821;BME280;11073;48.586;12.066;2023-03-14T13:53:30;94678.19;;;13.13;52.13
21821;BME280;11073;48.586;12.066;2023-03-14T13:56:01;94672.75;;;13.13;52.38
21821;BME280;11073;48.586;12.066;2023-03-14T13:58:31;94688.63;;;13.06;52.10
21821;BME280;11073;48.586;12.066;2023-03-14T14:01:12;94679.53;;;12.97;52.22
21821;BME280;11073;48.586;12.066;2023-03-14T14:03:44;94698.69;;;12.87;52.55
21821;BME280;11073;48.586;12.066;2023-03-14T14:06:25;94688.72;;;12.82;52.87
21821;BME280;11073;48.586;12.066;2023-03-14T14:08:57;94700.81;;;12.90;53.07
21821;BME280;11073;48.586;12.066;2023-03-14T14:11:42;94698.97;;;13.04;53.21
21821;BME280;11073;48.586;12.066;2023-03-14T14:14:26;94655.03;;;12.64;53.43
21821;BME280;11073;48.586;12.066;2023-03-14T14:16:56;94733.13;;;12.91;53.63
21821;BME280;11073;48.586;12.066;2023-03-14T14:19:28;94699.72;;;12.53;53.35
21821;BME280;11073;48.586;12.066;2023-03-14T14:21:58;94740.66;;;12.57;54.15
21821;BME280;11073;48.586;12.066;2023-03-14T14:24:30;94770.53;;;12.33;54.65
21821;BME280;11073;48.586;12.066;2023-03-14T14:27:00;94769.84;;;11.98;55.89
21821;BME280;11073;48.586;12.066;2023-03-14T14:29:32;94782.53;;;11.74;57.05
21821;BME280;11073;48.586;12.066;2023-03-14T14:32:03;94786.84;;;11.46;58.37
21821;BME280;11073;48.586;12.066;2023-03-14T14:34:39;94799.94;;;11.33;59.11
21821;BME280;11073;48.586;12.066;2023-03-14T14:37:18;94804.63;;;11.23;59.65
21821;BME280;11073;48.586;12.066;2023-03-14T14:39:50;94826.91;;;11.10;60.55
21821;BME280;11073;48.586;12.066;2023-03-14T14:42:21;94805.31;;;10.99;61.23
21821;BME280;11073;48.586;12.066;2023-03-14T14:44:51;94808.59;;;10.91;62.04